createdAt,value
2018-01-21T00:00:00.480Z,1.64
2018-01-21T00:01:03.575Z,1.65
2018-01-21T00:02:07.186Z,1.60
2018-01-21T00:03:10.466Z,1.59
2018-01-21T00:04:13.710Z,1.63
2018-01-21T00:05:17.037Z,1.63
2018-01-21T00:06:20.113Z,1.69
2018-01-21T00:07:24.479Z,1.68
2018-01-21T00:08:28.106Z,1.66
2018-01-21T00:09:31.488Z,1.59
2018-01-21T00:10:35.365Z,1.68
2018-01-21T00:11:38.330Z,1.79
2018-01-21T00:12:41.427Z,1.76
2018-01-21T00:13:44.628Z,1.80
2018-01-21T00:14:47.657Z,1.75
2018-01-21T00:15:50.986Z,1.76
2018-01-21T00:16:54.220Z,1.83
2018-01-21T00:17:57.268Z,1.82
2018-01-21T00:19:00.181Z,1.86
2018-01-21T00:20:03.154Z,1.84
2018-01-21T00:21:06.119Z,1.72
2018-01-21T00:22:09.154Z,1.74
2018-01-21T00:23:12.373Z,1.82
2018-01-21T00:24:15.404Z,1.83
2018-01-21T00:25:18.414Z,1.77
2018-01-21T00:26:21.320Z,1.73
2018-01-21T00:27:24.308Z,1.68
2018-01-21T00:28:27.428Z,1.77
2018-01-21T00:29:30.608Z,1.81
2018-01-21T00:30:33.574Z,1.81
2018-01-21T00:31:36.635Z,1.79
2018-01-21T00:32:39.586Z,1.76
2018-01-21T00:33:42.767Z,1.77
2018-01-21T00:34:45.714Z,1.74
2018-01-21T00:35:48.978Z,1.78
2018-01-21T00:36:51.919Z,1.83
2018-01-21T00:37:54.880Z,1.77
2018-01-21T00:38:57.861Z,1.77
2018-01-21T00:40:00.831Z,1.79
2018-01-21T00:41:03.772Z,1.79
2018-01-21T00:42:07.035Z,1.76
2018-01-21T00:43:10.006Z,1.78
2018-01-21T00:44:12.946Z,1.83
2018-01-21T00:45:15.917Z,1.79
2018-01-21T00:46:18.744Z,1.75
2018-01-21T00:47:21.561Z,1.79
2018-01-21T00:48:24.660Z,1.76
2018-01-21T00:49:27.562Z,1.70
2018-01-21T00:50:30.418Z,1.76
2018-01-21T00:51:33.293Z,1.85
2018-01-21T00:52:36.466Z,1.89
2018-01-21T00:53:39.349Z,1.89
2018-01-21T00:54:42.497Z,1.86
2018-01-21T00:55:45.414Z,1.78
2018-01-21T00:56:48.273Z,1.77
2018-01-21T00:57:51.217Z,1.81
2018-01-21T00:58:54.150Z,1.85
2018-01-21T00:59:57.103Z,1.92
2018-01-21T01:01:00.322Z,1.88
2018-01-21T01:02:03.223Z,1.89
2018-01-21T01:03:06.206Z,1.78
2018-01-21T01:04:09.109Z,1.83
2018-01-21T01:05:12.040Z,1.82
2018-01-21T01:06:15.036Z,1.86
2018-01-21T01:07:18.259Z,1.83
2018-01-21T01:08:21.218Z,1.85
2018-01-21T01:09:24.140Z,1.88
2018-01-21T01:10:27.051Z,1.94
2018-01-21T01:11:29.972Z,1.93
2018-01-21T01:12:32.912Z,1.87
2018-01-21T01:13:36.106Z,1.90
2018-01-21T01:14:39.015Z,1.89
2018-01-21T01:15:41.932Z,1.90
2018-01-21T01:16:44.846Z,1.96
2018-01-21T01:17:47.823Z,1.96
2018-01-21T01:18:50.847Z,1.97
2018-01-21T01:19:54.091Z,1.92
2018-01-21T01:20:57.040Z,1.93
2018-01-21T01:21:59.986Z,1.95
2018-01-21T01:23:02.921Z,1.94
2018-01-21T01:24:05.831Z,1.94
2018-01-21T01:25:08.734Z,1.98
2018-01-21T01:26:11.921Z,2.00
2018-01-21T01:27:14.832Z,1.99
2018-01-21T01:28:17.767Z,1.98
2018-01-21T01:29:20.689Z,2.01
2018-01-21T01:30:23.639Z,2.02
2018-01-21T01:31:26.588Z,2.05
2018-01-21T01:32:33.462Z,2.08
2018-01-21T01:33:36.377Z,2.06
2018-01-21T01:34:39.305Z,2.04
2018-01-21T01:35:42.279Z,1.96
2018-01-21T01:36:45.191Z,1.98
2018-01-21T01:37:48.168Z,1.92
2018-01-21T01:38:51.362Z,1.88
2018-01-21T01:39:54.312Z,1.95
2018-01-21T01:40:57.227Z,1.96
2018-01-21T01:42:00.156Z,1.97
2018-01-21T01:43:03.076Z,2.01
2018-01-21T01:44:05.970Z,1.97
2018-01-21T01:45:09.185Z,1.95
2018-01-21T01:46:12.087Z,1.99
2018-01-21T01:47:14.995Z,1.98
2018-01-21T01:48:17.974Z,2.01
2018-01-21T01:49:20.982Z,2.01
2018-01-21T01:50:23.994Z,2.03
2018-01-21T01:51:27.178Z,1.96
2018-01-21T01:52:30.084Z,1.98
2018-01-21T01:53:33.056Z,1.90
2018-01-21T01:54:35.974Z,1.88
2018-01-21T01:55:38.832Z,1.84
2018-01-21T01:56:41.707Z,1.84
2018-01-21T01:57:44.878Z,1.85
2018-01-21T01:58:47.723Z,1.86
2018-01-21T01:59:50.612Z,1.79
2018-01-21T02:00:53.530Z,1.77
2018-01-21T02:01:56.465Z,1.76
2018-01-21T02:02:59.384Z,1.80
2018-01-21T02:04:02.624Z,1.82
2018-01-21T02:05:05.556Z,1.83
2018-01-21T02:06:08.541Z,1.81
2018-01-21T02:07:11.459Z,1.72
2018-01-21T02:08:14.382Z,1.76
2018-01-21T02:09:17.347Z,1.84
2018-01-21T02:10:20.574Z,1.86
2018-01-21T02:11:23.517Z,1.88
2018-01-21T02:12:26.420Z,1.94
2018-01-21T02:13:29.385Z,1.91
2018-01-21T02:14:32.281Z,1.92
2018-01-21T02:15:35.181Z,1.95
2018-01-21T02:16:38.410Z,1.95
2018-01-21T02:17:41.341Z,1.94
2018-01-21T02:18:44.317Z,1.91
2018-01-21T02:19:47.199Z,1.88
2018-01-21T02:20:50.118Z,1.90
2018-01-21T02:21:53.030Z,1.81
2018-01-21T02:22:56.235Z,1.81
2018-01-21T02:23:59.260Z,1.88
2018-01-21T02:25:02.178Z,1.89
2018-01-21T02:26:05.143Z,1.86
2018-01-21T02:27:08.039Z,1.86
2018-01-21T02:28:10.957Z,1.87
2018-01-21T02:29:14.159Z,1.86
2018-01-21T02:30:17.112Z,1.85
2018-01-21T02:31:20.009Z,1.82
2018-01-21T02:32:22.957Z,1.82
2018-01-21T02:33:25.886Z,1.80
2018-01-21T02:34:28.856Z,1.76
2018-01-21T02:35:32.109Z,1.80
2018-01-21T02:36:35.049Z,1.83
2018-01-21T02:37:38.011Z,1.78
2018-01-21T02:38:40.959Z,1.78
2018-01-21T02:39:43.899Z,1.75
2018-01-21T02:40:46.819Z,1.79
2018-01-21T02:41:50.003Z,1.81
2018-01-21T02:42:52.977Z,1.84
2018-01-21T02:43:55.898Z,1.85
2018-01-21T02:44:58.843Z,1.86
2018-01-21T02:46:01.740Z,1.87
2018-01-21T02:47:04.649Z,1.86
2018-01-21T02:48:07.831Z,1.84
2018-01-21T02:49:10.713Z,1.80
2018-01-21T02:50:13.590Z,1.77
2018-01-21T02:51:16.505Z,1.72
2018-01-21T02:52:19.403Z,1.73
2018-01-21T02:53:22.327Z,1.77
2018-01-21T02:54:25.556Z,1.77
2018-01-21T02:55:28.366Z,1.77
2018-01-21T02:56:31.190Z,1.77
2018-01-21T02:57:33.983Z,1.72
2018-01-21T02:58:36.779Z,1.76
2018-01-21T02:59:39.718Z,1.81
2018-01-21T03:00:42.801Z,1.76
2018-01-21T03:01:45.589Z,1.77
2018-01-21T03:02:48.391Z,1.76
2018-01-21T03:03:51.209Z,1.71
2018-01-21T03:04:53.986Z,1.75
2018-01-21T03:05:56.857Z,1.78
2018-01-21T03:06:59.996Z,1.78
2018-01-21T03:08:03.180Z,1.77
2018-01-21T03:09:06.129Z,1.78
2018-01-21T03:10:09.238Z,1.73
2018-01-21T03:11:12.071Z,1.76
2018-01-21T03:12:14.954Z,1.78
2018-01-21T03:13:18.063Z,1.82
2018-01-21T03:14:21.056Z,1.86
2018-01-21T03:15:23.962Z,1.82
2018-01-21T03:16:26.879Z,1.76
2018-01-21T03:17:29.797Z,1.76
2018-01-21T03:18:33.095Z,1.76
2018-01-21T03:19:36.057Z,1.75
2018-01-21T03:20:39.001Z,1.79
2018-01-21T03:21:41.884Z,1.88
2018-01-21T03:22:44.766Z,1.81
2018-01-21T03:23:47.691Z,1.72
2018-01-21T03:24:50.836Z,1.75
2018-01-21T03:25:53.743Z,1.67
2018-01-21T03:26:56.664Z,1.67
2018-01-21T03:28:00.226Z,1.72
2018-01-21T03:29:03.106Z,1.76
2018-01-21T03:30:06.016Z,1.73
2018-01-21T03:31:09.215Z,1.71
2018-01-21T03:32:12.101Z,1.74
2018-01-21T03:33:14.981Z,1.73
2018-01-21T03:34:17.933Z,1.68
2018-01-21T03:35:20.818Z,1.75
2018-01-21T03:36:23.718Z,1.72
2018-01-21T03:37:26.921Z,1.71
2018-01-21T03:38:29.787Z,1.66
2018-01-21T03:39:32.729Z,1.62
2018-01-21T03:40:35.676Z,1.63
2018-01-21T03:41:38.537Z,1.64
2018-01-21T03:42:41.460Z,1.70
2018-01-21T03:43:44.630Z,1.71
2018-01-21T03:44:47.537Z,1.62
2018-01-21T03:45:50.479Z,1.57
2018-01-21T03:46:53.362Z,1.58
2018-01-21T03:47:56.272Z,1.51
2018-01-21T03:48:59.186Z,1.57
2018-01-21T03:50:02.352Z,1.54
2018-01-21T03:51:05.257Z,1.45
2018-01-21T03:52:08.149Z,1.45
2018-01-21T03:53:11.201Z,1.50
2018-01-21T03:54:14.139Z,1.51
2018-01-21T03:55:17.059Z,1.53
2018-01-21T03:56:20.380Z,1.47
2018-01-21T03:57:23.338Z,1.53
2018-01-21T03:58:26.358Z,1.38
2018-01-21T03:59:29.266Z,1.44
2018-01-21T04:00:32.195Z,1.53
2018-01-21T04:01:35.072Z,1.54
2018-01-21T04:02:38.261Z,1.56
2018-01-21T04:03:41.139Z,1.41
2018-01-21T04:04:44.044Z,1.40
2018-01-21T04:05:46.954Z,1.43
2018-01-21T04:06:49.881Z,1.46
2018-01-21T04:07:52.780Z,1.48
2018-01-21T04:08:55.976Z,1.48
2018-01-21T04:09:58.896Z,1.48
2018-01-21T04:11:01.804Z,1.48
2018-01-21T04:12:04.735Z,1.36
2018-01-21T04:13:07.629Z,1.39
2018-01-21T04:14:10.506Z,1.43
2018-01-21T04:15:13.694Z,1.46
2018-01-21T04:16:16.646Z,1.49
2018-01-21T04:17:19.549Z,1.41
2018-01-21T04:18:22.441Z,1.44
2018-01-21T04:19:25.366Z,1.47
2018-01-21T04:20:28.299Z,1.41
2018-01-21T04:21:31.511Z,1.45
2018-01-21T04:22:34.412Z,1.43
2018-01-21T04:23:37.341Z,1.58
2018-01-21T04:24:40.273Z,1.59
2018-01-21T04:25:43.256Z,1.60
2018-01-21T04:26:46.124Z,1.62
2018-01-21T04:27:49.339Z,1.67
2018-01-21T04:28:52.267Z,1.61
2018-01-21T04:29:55.199Z,1.58
2018-01-21T04:30:58.119Z,1.57
2018-01-21T04:32:01.413Z,1.54
2018-01-21T04:33:04.358Z,1.51
2018-01-21T04:34:07.566Z,1.51
2018-01-21T04:35:10.458Z,1.47
2018-01-21T04:36:13.341Z,1.48
2018-01-21T04:37:16.219Z,1.52
2018-01-21T04:38:19.152Z,1.57
2018-01-21T04:39:22.088Z,1.59
2018-01-21T04:40:25.298Z,1.58
2018-01-21T04:41:28.209Z,1.51
2018-01-21T04:42:31.137Z,1.56
2018-01-21T04:43:34.040Z,1.59
2018-01-21T04:44:36.931Z,1.56
2018-01-21T04:45:39.832Z,1.41
2018-01-21T04:46:48.055Z,1.45
2018-01-21T04:47:51.102Z,1.49
2018-01-21T04:48:54.160Z,1.49
2018-01-21T04:49:57.080Z,1.50
2018-01-21T04:50:59.972Z,1.50
2018-01-21T04:52:02.806Z,1.55
2018-01-21T04:53:06.471Z,1.51
2018-01-21T04:54:09.443Z,1.50
2018-01-21T04:55:12.423Z,1.55
2018-01-21T04:56:15.291Z,1.55
2018-01-21T04:57:18.124Z,1.54
2018-01-21T04:58:21.043Z,1.62
2018-01-21T04:59:24.266Z,1.54
2018-01-21T05:00:27.263Z,1.58
2018-01-21T05:01:30.209Z,1.62
2018-01-21T05:02:33.147Z,1.61
2018-01-21T05:03:36.122Z,1.60
2018-01-21T05:04:39.075Z,1.66
2018-01-21T05:05:42.279Z,1.67
2018-01-21T05:06:45.172Z,1.70
2018-01-21T05:07:48.129Z,1.70
2018-01-21T05:08:51.058Z,1.68
2018-01-21T05:09:53.949Z,1.71
2018-01-21T05:10:56.820Z,1.70
2018-01-21T05:12:00.013Z,1.74
2018-01-21T05:13:02.890Z,1.73
2018-01-21T05:14:05.820Z,1.71
2018-01-21T05:15:08.776Z,1.75
2018-01-21T05:16:11.705Z,1.77
2018-01-21T05:17:14.646Z,1.71
2018-01-21T05:18:17.853Z,1.73
2018-01-21T05:19:20.726Z,1.73
2018-01-21T05:20:23.653Z,1.69
2018-01-21T05:21:26.572Z,1.69
2018-01-21T05:22:29.552Z,1.68
2018-01-21T05:23:32.426Z,1.68
2018-01-21T05:24:35.625Z,1.68
2018-01-21T05:25:38.507Z,1.63
2018-01-21T05:26:41.373Z,1.66
2018-01-21T05:27:44.322Z,1.63
2018-01-21T05:28:47.204Z,1.64
2018-01-21T05:29:50.119Z,1.61
2018-01-21T05:30:53.292Z,1.57
2018-01-21T05:31:56.220Z,1.62
2018-01-21T05:32:59.128Z,1.66
2018-01-21T05:34:02.053Z,1.66
2018-01-21T05:35:04.935Z,1.67
2018-01-21T05:36:07.807Z,1.67
2018-01-21T05:37:11.012Z,1.59
2018-01-21T05:38:13.895Z,1.57
2018-01-21T05:39:16.831Z,1.58
2018-01-21T05:40:19.740Z,1.57
2018-01-21T05:41:22.632Z,1.59
2018-01-21T05:42:25.557Z,1.54
2018-01-21T05:43:28.810Z,1.51
2018-01-21T05:44:31.749Z,1.45
2018-01-21T05:45:34.677Z,1.50
2018-01-21T05:46:37.558Z,1.48
2018-01-21T05:47:40.472Z,1.48
2018-01-21T05:48:43.527Z,1.45
2018-01-21T05:49:46.992Z,1.46
2018-01-21T05:50:50.042Z,1.44
2018-01-21T05:51:52.952Z,1.39
2018-01-21T05:52:55.866Z,1.41
2018-01-21T05:53:58.815Z,1.37
2018-01-21T05:55:01.705Z,1.39
2018-01-21T05:56:04.863Z,1.39
2018-01-21T05:57:07.747Z,1.41
2018-01-21T05:58:10.596Z,1.38
2018-01-21T05:59:13.452Z,1.38
2018-01-21T06:00:16.294Z,1.39
2018-01-21T06:01:19.155Z,1.40
2018-01-21T06:02:22.270Z,1.39
2018-01-21T06:03:25.127Z,1.39
2018-01-21T06:04:27.967Z,1.42
2018-01-21T06:05:30.811Z,1.39
2018-01-21T06:06:33.671Z,1.38
2018-01-21T06:07:36.503Z,1.35
2018-01-21T06:08:39.772Z,1.39
2018-01-21T06:09:42.616Z,1.30
2018-01-21T06:10:45.474Z,1.19
2018-01-21T06:11:48.219Z,1.10
2018-01-21T06:12:51.042Z,1.03
2018-01-21T06:13:54.011Z,1.03
2018-01-21T06:14:57.111Z,1.09
2018-01-21T06:15:59.902Z,1.03
2018-01-21T06:17:02.694Z,1.04
2018-01-21T06:18:05.508Z,1.08
2018-01-21T06:19:08.448Z,1.06
2018-01-21T06:20:11.449Z,1.06
2018-01-21T06:21:14.662Z,1.11
2018-01-21T06:22:17.576Z,1.01
2018-01-21T06:23:20.390Z,0.98
2018-01-21T06:24:23.194Z,1.07
2018-01-21T06:25:25.998Z,1.06
2018-01-21T06:26:28.839Z,1.14
2018-01-21T06:27:31.862Z,1.14
2018-01-21T06:28:34.781Z,1.17
2018-01-21T06:29:37.685Z,1.21
2018-01-21T06:30:40.614Z,1.20
2018-01-21T06:31:43.464Z,1.20
2018-01-21T06:32:46.331Z,1.18
2018-01-21T06:33:49.460Z,1.16
2018-01-21T06:34:52.203Z,1.14
2018-01-21T06:35:55.063Z,1.14
2018-01-21T06:36:57.917Z,1.18
2018-01-21T06:38:00.753Z,1.19
2018-01-21T06:39:03.707Z,1.17
2018-01-21T06:40:06.831Z,1.15
2018-01-21T06:41:09.834Z,1.17
2018-01-21T06:42:12.691Z,1.22
2018-01-21T06:43:15.562Z,1.24
2018-01-21T06:44:18.423Z,1.23
2018-01-21T06:45:21.344Z,1.20
2018-01-21T06:46:24.695Z,1.19
2018-01-21T06:47:27.605Z,1.22
2018-01-21T06:48:30.516Z,1.18
2018-01-21T06:49:33.424Z,1.15
2018-01-21T06:50:36.325Z,1.15
2018-01-21T06:51:39.237Z,1.09
2018-01-21T06:52:42.484Z,1.06
2018-01-21T06:53:45.338Z,1.02
2018-01-21T06:54:48.159Z,0.98
2018-01-21T06:55:51.066Z,1.10
2018-01-21T06:56:54.010Z,1.06
2018-01-21T06:57:56.834Z,1.10
2018-01-21T06:59:00.046Z,1.06
2018-01-21T07:00:02.956Z,1.07
2018-01-21T07:01:05.844Z,1.12
2018-01-21T07:02:08.772Z,1.11
2018-01-21T07:03:11.737Z,1.06
2018-01-21T07:04:14.666Z,1.08
2018-01-21T07:05:17.954Z,1.13
2018-01-21T07:06:20.840Z,1.11
2018-01-21T07:07:23.788Z,1.11
2018-01-21T07:08:26.737Z,1.12
2018-01-21T07:09:29.777Z,1.12
2018-01-21T07:10:32.712Z,1.15
2018-01-21T07:11:35.945Z,1.06
2018-01-21T07:12:38.847Z,1.05
2018-01-21T07:13:43.666Z,1.06
2018-01-21T07:14:46.599Z,1.09
2018-01-21T07:15:49.514Z,1.10
2018-01-21T07:16:52.405Z,1.05
2018-01-21T07:17:55.634Z,1.05
2018-01-21T07:18:58.574Z,1.06
2018-01-21T07:20:01.475Z,1.06
2018-01-21T07:21:04.408Z,1.05
2018-01-21T07:22:07.321Z,1.08
2018-01-21T07:23:10.248Z,1.10
2018-01-21T07:24:13.473Z,1.10
2018-01-21T07:25:16.376Z,1.14
2018-01-21T07:26:19.286Z,1.10
2018-01-21T07:27:22.185Z,1.08
2018-01-21T07:28:25.077Z,1.12
2018-01-21T07:29:28.033Z,1.17
2018-01-21T07:30:31.251Z,1.14
2018-01-21T07:31:34.137Z,1.09
2018-01-21T07:32:36.994Z,1.00
2018-01-21T07:33:39.907Z,1.07
2018-01-21T07:34:42.813Z,1.10
2018-01-21T07:35:45.709Z,1.17
2018-01-21T07:36:48.827Z,1.12
2018-01-21T07:37:52.041Z,1.12
2018-01-21T07:38:54.914Z,1.11
2018-01-21T07:39:57.821Z,1.13
2018-01-21T07:41:00.768Z,0.98
2018-01-21T07:42:03.712Z,0.98
2018-01-21T07:43:06.922Z,0.97
2018-01-21T07:44:09.811Z,1.09
2018-01-21T07:45:12.737Z,1.06
2018-01-21T07:46:15.627Z,1.06
2018-01-21T07:47:18.532Z,1.10
2018-01-21T07:48:21.424Z,1.08
2018-01-21T07:49:24.642Z,1.08
2018-01-21T07:50:27.536Z,1.12
2018-01-21T07:51:30.416Z,1.17
2018-01-21T07:52:33.888Z,1.25
2018-01-21T07:53:36.796Z,1.15
2018-01-21T07:54:39.724Z,1.15
2018-01-21T07:55:45.006Z,1.19
2018-01-21T07:56:47.969Z,1.15
2018-01-21T07:57:50.912Z,1.19
2018-01-21T07:58:53.799Z,1.18
2018-01-21T07:59:56.689Z,1.15
2018-01-21T08:00:59.585Z,1.16
2018-01-21T08:02:02.537Z,1.19
2018-01-21T08:03:05.450Z,1.14
2018-01-21T08:04:08.415Z,1.14
2018-01-21T08:05:11.319Z,1.08
2018-01-21T08:06:14.277Z,1.05
2018-01-21T08:07:17.180Z,1.08
2018-01-21T08:08:20.419Z,1.03
2018-01-21T08:09:23.334Z,1.08
2018-01-21T08:10:26.238Z,1.08
2018-01-21T08:11:29.167Z,1.11
2018-01-21T08:12:32.108Z,1.05
2018-01-21T08:13:35.001Z,0.96
2018-01-21T08:14:38.167Z,0.95
2018-01-21T08:15:41.108Z,0.96
2018-01-21T08:16:44.028Z,0.97
2018-01-21T08:17:46.969Z,1.08
2018-01-21T08:18:49.863Z,1.09
2018-01-21T08:19:52.785Z,1.15
2018-01-21T08:20:56.019Z,1.15
2018-01-21T08:21:58.998Z,1.19
2018-01-21T08:23:01.937Z,1.26
2018-01-21T08:24:04.908Z,1.32
2018-01-21T08:25:07.818Z,1.27
2018-01-21T08:26:10.712Z,1.35
2018-01-21T08:27:13.852Z,1.38
2018-01-21T08:28:16.828Z,1.24
2018-01-21T08:29:19.772Z,1.25
2018-01-21T08:30:22.631Z,1.22
2018-01-21T08:31:25.555Z,1.30
2018-01-21T08:32:28.547Z,1.34
2018-01-21T08:33:31.748Z,1.28
2018-01-21T08:34:38.562Z,1.36
2018-01-21T08:37:49.094Z,1.43
2018-01-21T08:39:54.247Z,1.43
2018-01-21T08:41:59.595Z,1.60
2018-01-21T08:43:02.864Z,1.63
2018-01-21T08:44:05.773Z,1.76
2018-01-21T08:45:08.748Z,1.83
2018-01-21T08:46:11.924Z,1.73
2018-01-21T08:47:14.849Z,1.72
2018-01-21T08:48:17.852Z,1.73
2018-01-21T08:49:20.815Z,1.69
2018-01-21T08:50:23.761Z,1.71
2018-01-21T08:51:26.678Z,1.63
2018-01-21T08:52:29.985Z,1.53
2018-01-21T08:53:32.909Z,1.45
2018-01-21T08:54:35.735Z,1.56
2018-01-21T08:55:38.594Z,1.58
2018-01-21T08:56:41.512Z,1.49
2018-01-21T08:57:44.434Z,1.43
2018-01-21T08:58:47.534Z,1.41
2018-01-21T08:59:50.351Z,1.53
2018-01-21T09:00:53.149Z,1.53
2018-01-21T09:01:55.978Z,1.54
2018-01-21T09:02:58.770Z,1.65
2018-01-21T09:04:01.573Z,1.59
2018-01-21T09:05:04.531Z,1.62
2018-01-21T09:06:07.486Z,1.67
2018-01-21T09:07:10.404Z,1.67
2018-01-21T09:08:13.327Z,1.57
2018-01-21T09:09:16.323Z,1.54
2018-01-21T09:10:20.155Z,1.53
2018-01-21T09:11:23.039Z,1.56
2018-01-21T09:12:25.991Z,1.47
2018-01-21T09:13:28.920Z,1.53
2018-01-21T09:14:31.857Z,1.51
2018-01-21T09:15:34.782Z,1.56
2018-01-21T09:16:38.061Z,1.52
2018-01-21T09:17:40.999Z,1.45
2018-01-21T09:18:44.213Z,1.49
2018-01-21T09:19:47.155Z,1.45
2018-01-21T09:20:50.117Z,1.46
2018-01-21T09:21:53.195Z,1.54
2018-01-21T09:22:56.632Z,1.50
2018-01-21T09:24:00.075Z,1.55
2018-01-21T09:25:02.997Z,1.46
2018-01-21T09:26:05.836Z,1.60
2018-01-21T09:27:08.730Z,1.54
2018-01-21T09:28:11.576Z,1.44
2018-01-21T09:29:14.677Z,1.55
2018-01-21T09:30:17.552Z,1.56
2018-01-21T09:31:20.365Z,1.61
2018-01-21T09:32:23.168Z,1.63
2018-01-21T09:33:26.427Z,1.66
2018-01-21T09:34:29.389Z,1.68
2018-01-21T09:35:32.325Z,1.60
2018-01-21T09:36:35.273Z,1.61
2018-01-21T09:37:38.218Z,1.56
2018-01-21T09:38:41.162Z,1.64
2018-01-21T09:39:44.074Z,1.61
2018-01-21T09:40:47.472Z,1.72
2018-01-21T09:41:50.331Z,1.70
2018-01-21T09:42:53.442Z,1.71
2018-01-21T09:43:56.380Z,1.68
2018-01-21T09:44:59.332Z,1.66
2018-01-21T09:46:02.262Z,1.57
2018-01-21T09:47:05.550Z,1.67
2018-01-21T09:48:08.454Z,1.78
2018-01-21T09:49:11.428Z,1.84
2018-01-21T09:50:14.351Z,1.90
2018-01-21T09:51:17.280Z,1.77
2018-01-21T09:52:20.155Z,1.73
2018-01-21T09:53:23.463Z,1.75
2018-01-21T09:54:26.453Z,1.73
2018-01-21T09:55:29.527Z,1.75
2018-01-21T09:56:32.628Z,1.61
2018-01-21T09:57:35.721Z,1.68
2018-01-21T09:58:38.721Z,1.68
2018-01-21T09:59:42.112Z,1.63
2018-01-21T10:00:45.342Z,1.59
2018-01-21T10:01:48.603Z,1.58
2018-01-21T10:02:51.677Z,1.57
2018-01-21T10:03:54.769Z,1.59
2018-01-21T10:04:58.705Z,1.67
2018-01-21T10:06:02.537Z,1.68
2018-01-21T10:07:07.115Z,1.65
2018-01-21T10:08:10.070Z,1.74
2018-01-21T10:09:15.113Z,1.74
2018-01-21T10:10:18.399Z,1.73
2018-01-21T10:11:21.335Z,1.73
2018-01-21T10:12:24.573Z,1.84
2018-01-21T10:13:27.695Z,1.77
2018-01-21T10:14:31.455Z,1.95
2018-01-21T10:15:34.632Z,1.93
2018-01-21T10:16:39.414Z,1.90
2018-01-21T10:17:43.246Z,2.00
2018-01-21T10:18:48.548Z,2.05
2018-01-21T10:19:53.727Z,1.91
2018-01-21T10:20:58.252Z,1.91
2018-01-21T10:22:01.330Z,1.94
2018-01-21T10:23:05.085Z,1.88
2018-01-21T10:24:10.679Z,1.90
2018-01-21T10:25:15.303Z,1.96
2018-01-21T10:26:20.441Z,1.91
2018-01-21T10:27:23.906Z,1.82
2018-01-21T10:28:27.694Z,1.75
2018-01-21T10:29:30.908Z,1.88
2018-01-21T10:30:34.288Z,1.85
2018-01-21T10:31:38.532Z,1.86
2018-01-21T10:32:42.537Z,1.82
2018-01-21T10:33:47.474Z,1.79
2018-01-21T10:34:51.219Z,1.84
2018-01-21T10:35:56.315Z,1.95
2018-01-21T10:37:01.568Z,1.94
2018-01-21T10:38:07.023Z,1.97
2018-01-21T10:39:12.310Z,2.00
2018-01-21T10:40:17.043Z,1.99
2018-01-21T10:41:22.317Z,1.90
2018-01-21T10:42:27.939Z,1.76
2018-01-21T10:43:33.253Z,1.86
2018-01-21T10:44:37.347Z,1.81
2018-01-21T10:45:41.801Z,1.93
2018-01-21T10:46:46.181Z,2.00
2018-01-21T10:47:52.548Z,1.98
2018-01-21T10:48:57.770Z,2.06
2018-01-21T10:50:02.628Z,2.32
2018-01-21T10:51:08.023Z,2.71
2018-01-21T10:52:12.356Z,2.43
2018-01-21T10:53:17.394Z,2.12
2018-01-21T10:54:21.835Z,2.11
2018-01-21T10:55:26.754Z,2.06
2018-01-21T10:56:32.010Z,2.00
2018-01-21T10:57:37.641Z,2.14
2018-01-21T10:58:43.245Z,2.05
2018-01-21T10:59:46.799Z,1.96
2018-01-21T11:00:54.285Z,1.92
2018-01-21T11:01:59.178Z,1.81
2018-01-21T11:03:04.389Z,1.79
2018-01-21T11:04:09.030Z,1.80
2018-01-21T11:05:13.703Z,1.88
2018-01-21T11:06:18.596Z,1.92
2018-01-21T11:07:24.596Z,1.96
2018-01-21T11:08:31.436Z,1.89
2018-01-21T11:09:37.770Z,1.94
2018-01-21T11:10:44.134Z,1.92
2018-01-21T11:11:49.635Z,2.13
2018-01-21T11:12:54.849Z,2.28
2018-01-21T11:14:00.166Z,2.23
2018-01-21T11:15:06.676Z,2.44
2018-01-21T11:16:12.228Z,2.57
2018-01-21T11:17:17.651Z,2.62
2018-01-21T11:18:22.426Z,2.90
2018-01-21T11:19:27.397Z,2.95
2018-01-21T11:20:33.044Z,3.21
2018-01-21T11:21:38.774Z,3.08
2018-01-21T11:22:43.271Z,3.26
2018-01-21T11:23:50.352Z,3.11
2018-01-21T11:24:54.263Z,3.11
2018-01-21T11:25:58.101Z,3.07
2018-01-21T11:27:02.483Z,3.22
2018-01-21T11:28:07.888Z,2.98
2018-01-21T11:29:15.370Z,2.94
2018-01-21T11:30:21.891Z,2.75
2018-01-21T11:31:29.126Z,2.87
2018-01-21T11:32:34.191Z,2.86
2018-01-21T11:33:40.670Z,2.68
2018-01-21T11:34:47.279Z,2.62
2018-01-21T11:35:53.970Z,2.52
2018-01-21T11:36:58.914Z,2.52
2018-01-21T11:38:02.663Z,2.52
2018-01-21T11:39:07.593Z,2.60
2018-01-21T11:40:13.101Z,2.56
2018-01-21T11:41:18.527Z,2.59
2018-01-21T11:42:24.126Z,2.66
2018-01-21T11:43:31.036Z,2.67
2018-01-21T11:44:36.449Z,2.76
2018-01-21T11:45:42.037Z,2.76
2018-01-21T11:46:48.584Z,2.59
2018-01-21T11:47:53.907Z,2.46
2018-01-21T11:49:00.260Z,2.47
2018-01-21T11:50:05.774Z,2.55
2018-01-21T11:51:10.930Z,2.56
2018-01-21T11:52:17.486Z,2.64
2018-01-21T11:53:23.050Z,2.66
2018-01-21T11:54:29.031Z,2.75
2018-01-21T11:55:36.488Z,2.70
2018-01-21T11:56:41.961Z,2.68
2018-01-21T11:57:50.288Z,2.71
2018-01-21T11:58:55.961Z,2.74
2018-01-21T12:00:01.441Z,3.29
2018-01-21T12:01:07.035Z,3.64
2018-01-21T12:02:13.430Z,3.15
2018-01-21T12:03:19.150Z,3.00
2018-01-21T12:04:25.453Z,2.71
2018-01-21T12:05:32.124Z,2.64
2018-01-21T12:06:37.571Z,2.60
2018-01-21T12:07:43.738Z,2.54
2018-01-21T12:08:49.377Z,2.47
2018-01-21T12:09:57.616Z,2.62
2018-01-21T12:11:04.524Z,2.45
2018-01-21T12:12:11.171Z,2.51
2018-01-21T12:13:17.560Z,2.36
2018-01-21T12:14:23.075Z,2.42
2018-01-21T12:15:29.569Z,2.39
2018-01-21T12:16:35.095Z,2.27
2018-01-21T12:17:40.614Z,2.39
2018-01-21T12:18:48.589Z,2.40
2018-01-21T12:19:54.613Z,2.43
2018-01-21T12:21:07.872Z,2.57
2018-01-21T12:22:14.674Z,2.55
2018-01-21T12:23:20.982Z,2.43
2018-01-21T12:24:26.552Z,2.36
2018-01-21T12:25:31.970Z,2.37
2018-01-21T12:26:37.459Z,2.30
2018-01-21T12:27:43.872Z,2.31
2018-01-21T12:28:49.470Z,2.54
2018-01-21T12:29:56.047Z,2.55
2018-01-21T12:31:04.505Z,2.41
2018-01-21T12:32:10.165Z,2.26
2018-01-21T12:33:20.083Z,2.19
2018-01-21T12:34:25.027Z,2.10
2018-01-21T12:35:35.655Z,2.27
2018-01-21T12:36:42.154Z,2.21
2018-01-21T12:37:52.852Z,2.23
2018-01-21T12:39:05.429Z,2.21
2018-01-21T12:40:12.972Z,2.24
2018-01-21T12:41:20.524Z,2.19
2018-01-21T12:42:25.505Z,2.23
2018-01-21T12:43:32.516Z,2.24
2018-01-21T12:44:38.107Z,2.09
2018-01-21T12:45:48.761Z,2.03
2018-01-21T12:46:55.730Z,2.14
2018-01-21T12:48:04.833Z,2.11
2018-01-21T12:49:12.348Z,2.00
2018-01-21T12:50:19.752Z,1.97
2018-01-21T12:51:25.369Z,1.95
2018-01-21T12:52:35.961Z,1.88
2018-01-21T12:53:41.486Z,1.93
2018-01-21T12:54:50.740Z,2.05
2018-01-21T12:55:56.473Z,2.14
2018-01-21T12:57:03.298Z,2.15
2018-01-21T12:58:12.350Z,2.16
2018-01-21T12:59:18.939Z,2.17
2018-01-21T13:00:25.733Z,2.21
2018-01-21T13:01:32.386Z,2.12
2018-01-21T13:02:37.118Z,2.27
2018-01-21T13:03:43.181Z,2.19
2018-01-21T13:04:51.168Z,2.16
2018-01-21T13:05:57.951Z,2.21
2018-01-21T13:07:03.959Z,2.23
2018-01-21T13:08:10.315Z,2.18
2018-01-21T13:09:16.872Z,2.12
2018-01-21T13:10:26.478Z,2.18
2018-01-21T13:11:32.904Z,2.19
2018-01-21T13:12:39.319Z,2.18
2018-01-21T13:13:49.438Z,2.32
2018-01-21T13:14:54.967Z,2.20
2018-01-21T13:16:01.430Z,2.24
2018-01-21T13:17:08.253Z,2.05
2018-01-21T13:18:13.938Z,2.17
2018-01-21T13:19:20.820Z,2.18
2018-01-21T13:20:27.465Z,2.27
2018-01-21T13:21:34.986Z,2.18
2018-01-21T13:22:41.949Z,2.21
2018-01-21T13:23:53.648Z,2.18
2018-01-21T13:24:59.221Z,2.16
2018-01-21T13:26:05.786Z,2.11
2018-01-21T13:27:18.672Z,2.11
2018-01-21T13:28:25.367Z,2.17
2018-01-21T13:29:31.268Z,2.08
2018-01-21T13:30:36.859Z,2.08
2018-01-21T13:31:45.117Z,2.14
2018-01-21T13:32:53.420Z,2.12
2018-01-21T13:33:59.767Z,2.16
2018-01-21T13:35:06.620Z,2.07
2018-01-21T13:36:12.374Z,2.07
2018-01-21T13:37:17.853Z,2.10
2018-01-21T13:38:24.582Z,2.02
2018-01-21T13:39:30.458Z,2.06
2018-01-21T13:40:35.987Z,2.00
2018-01-21T13:41:43.902Z,2.13
2018-01-21T13:42:50.393Z,2.11
2018-01-21T13:43:55.589Z,1.96
2018-01-21T13:45:01.872Z,1.98
2018-01-21T13:46:09.214Z,2.03
2018-01-21T13:47:19.173Z,2.06
2018-01-21T13:48:24.731Z,2.14
2018-01-21T13:49:32.696Z,2.12
2018-01-21T13:50:39.188Z,2.04
2018-01-21T13:51:49.628Z,2.04
2018-01-21T13:52:54.907Z,2.05
2018-01-21T13:54:00.941Z,2.12
2018-01-21T13:55:09.244Z,2.13
2018-01-21T13:56:18.325Z,2.16
2018-01-21T13:57:25.002Z,2.18
2018-01-21T13:58:30.628Z,1.99
2018-01-21T13:59:39.712Z,2.03
2018-01-21T14:00:47.195Z,2.00
2018-01-21T14:01:54.984Z,2.08
2018-01-21T14:03:01.328Z,2.01
2018-01-21T14:04:07.271Z,2.08
2018-01-21T14:05:14.834Z,2.08
2018-01-21T14:06:22.684Z,2.13
2018-01-21T14:07:30.772Z,1.96
2018-01-21T14:08:37.825Z,1.99
2018-01-21T14:09:47.041Z,2.07
2018-01-21T14:10:58.576Z,2.10
2018-01-21T14:12:06.531Z,2.14
2018-01-21T14:13:11.891Z,2.19
2018-01-21T14:14:19.935Z,2.19